Terminal Aerodrome Forecast
Issued by NWS

Home | Current Version | Previous Version | Text Only | Print | Product List | Glossary On
Versions: 1 2 3 4 5 6 7 8 9 10 11 12 13 14 15 16 17 18 19
000
FTAK31 PAJN 242300
TAFAGY
TAF
PAGY 242333Z 2500/2524 VRB06KT P6SM -SHRA BKN025 OVC050
     FM250300 04010KT 6SM -RA SCT050 OVC100
     FM250600 03012G20KT P6SM -RA SCT040 OVC070
     FM250900 VRB05KT P6SM -SHRA BKN030 OVC050
     FM251400 21010KT P6SM -SHRA BKN030 OVC050 WS020/20025KT
     FM251800 21010G20KT P6SM VCSH BKN050 WS020/20025KT
      AMD LTD TO CLD VIS AND WIND=

USA.gov is the U.S. government's official web portal to all federal, state and local government web resources and services.